N222HL KOWB-KIND
Flight info
| Callsign | N222HL |
|---|---|
| Flight time | 0h 44m |
| Altitude | 23000 |
| Route | EMBRR SMUKE3 |
| Aircraft | CL60/M-SBDE1E2E3FGHIJ1J4J5J7M3RWXYZ/LB1V1D1 |
Departure
| Time | 2026-05-06 23:32 |
|---|---|
| Airport | Owensboro Daviess County Airport (KOWB) |
Arrival
| Time | 2026-05-07 00:16 |
|---|---|
| Airport | Indianapolis International Airport (KIND) |
| Time | Latitude | Longitude | Altitude | Speed | Heading |
|---|---|---|---|---|---|
| 2026-05-06 23:24 | 37.74840 | -87.16408 | 408 ft | 0 kts | 240° |
| 2026-05-06 23:27 | 37.74838 | -87.16418 | 408 ft | 3 kts | 272° |
| 2026-05-06 23:27 | 37.74840 | -87.16467 | 408 ft | 11 kts | 269° |
| 2026-05-06 23:28 | 37.74781 | -87.16522 | 408 ft | 15 kts | 178° |
| 2026-05-06 23:28 | 37.74641 | -87.16517 | 408 ft | 22 kts | 178° |
| 2026-05-06 23:28 | 37.74473 | -87.16511 | 407 ft | 25 kts | 178° |
| 2026-05-06 23:28 | 37.74291 | -87.16539 | 405 ft | 27 kts | 204° |
| 2026-05-06 23:29 | 37.74092 | -87.16557 | 405 ft | 30 kts | 178° |
| 2026-05-06 23:29 | 37.73907 | -87.16548 | 405 ft | 31 kts | 177° |
| 2026-05-06 23:29 | 37.73677 | -87.16538 | 405 ft | 33 kts | 178° |
| 2026-05-06 23:29 | 37.73431 | -87.16527 | 401 ft | 36 kts | 179° |
| 2026-05-06 23:30 | 37.73173 | -87.16512 | 401 ft | 37 kts | 178° |
| 2026-05-06 23:30 | 37.72907 | -87.16499 | 401 ft | 39 kts | 178° |
| 2026-05-06 23:30 | 37.72739 | -87.16499 | 401 ft | 13 kts | 206° |
| 2026-05-06 23:30 | 37.72713 | -87.16545 | 401 ft | 0 kts | 266° |
| 2026-05-06 23:31 | 37.72717 | -87.16639 | 401 ft | 13 kts | 297° |
| 2026-05-06 23:32 | 37.72829 | -87.16676 | 401 ft | 34 kts | 357° |
| 2026-05-06 23:32 | 37.73416 | -87.16705 | 403 ft | 132 kts | 357° |
| 2026-05-06 23:32 | 37.74507 | -87.16761 | 907 ft | 171 kts | 357° |
| 2026-05-06 23:32 | 37.75706 | -87.16844 | 1897 ft | 185 kts | 356° |
| 2026-05-06 23:33 | 37.76939 | -87.16909 | 3213 ft | 188 kts | 357° |
| 2026-05-06 23:33 | 37.78295 | -87.16960 | 3842 ft | 198 kts | 357° |
| 2026-05-06 23:33 | 37.79678 | -87.16988 | 3972 ft | 197 kts | 358° |
| 2026-05-06 23:33 | 37.81057 | -87.17016 | 3981 ft | 203 kts | 358° |
| 2026-05-06 23:34 | 37.82600 | -87.17055 | 3964 ft | 240 kts | 358° |
| 2026-05-06 23:34 | 37.84319 | -87.17116 | 3967 ft | 247 kts | 356° |
| 2026-05-06 23:34 | 37.86074 | -87.17253 | 4073 ft | 268 kts | 355° |
| 2026-05-06 23:34 | 37.87974 | -87.17410 | 5410 ft | 277 kts | 354° |
| 2026-05-06 23:35 | 37.89812 | -87.17559 | 7018 ft | 275 kts | 352° |
| 2026-05-06 23:35 | 37.91725 | -87.17718 | 8344 ft | 282 kts | 349° |
| 2026-05-06 23:35 | 37.93681 | -87.17882 | 9564 ft | 291 kts | 347° |
| 2026-05-06 23:35 | 37.95693 | -87.18048 | 10877 ft | 296 kts | 346° |
| 2026-05-06 23:36 | 37.97737 | -87.18214 | 12233 ft | 299 kts | 346° |
| 2026-05-06 23:36 | 37.99784 | -87.18376 | 13609 ft | 297 kts | 345° |
| 2026-05-06 23:36 | 38.01825 | -87.18542 | 14816 ft | 299 kts | 343° |
| 2026-05-06 23:36 | 38.03926 | -87.18722 | 15674 ft | 312 kts | 343° |
| 2026-05-06 23:37 | 38.06124 | -87.18905 | 16639 ft | 319 kts | 342° |
| 2026-05-06 23:37 | 38.08373 | -87.19096 | 17428 ft | 330 kts | 341° |
| 2026-05-06 23:37 | 38.10664 | -87.19282 | 18326 ft | 336 kts | 340° |
| 2026-05-06 23:37 | 38.13047 | -87.19481 | 19077 ft | 345 kts | 341° |
| 2026-05-06 23:38 | 38.15434 | -87.19668 | 20062 ft | 344 kts | 340° |
| 2026-05-06 23:38 | 38.17810 | -87.19856 | 20881 ft | 348 kts | 339° |
| 2026-05-06 23:38 | 38.20232 | -87.20051 | 21724 ft | 350 kts | 339° |
| 2026-05-06 23:38 | 38.22674 | -87.20250 | 22391 ft | 356 kts | 339° |
| 2026-05-06 23:39 | 38.25176 | -87.20461 | 22893 ft | 368 kts | 339° |
| 2026-05-06 23:39 | 38.27807 | -87.20695 | 23013 ft | 390 kts | 340° |
| 2026-05-06 23:39 | 38.30615 | -87.20944 | 23023 ft | 415 kts | 340° |
| 2026-05-06 23:39 | 38.33559 | -87.21195 | 23017 ft | 432 kts | 341° |
| 2026-05-06 23:40 | 38.36588 | -87.21435 | 23009 ft | 437 kts | 341° |
| 2026-05-06 23:40 | 38.39651 | -87.21670 | 23016 ft | 436 kts | 342° |
| 2026-05-06 23:40 | 38.42655 | -87.21899 | 23015 ft | 434 kts | 342° |
| 2026-05-06 23:40 | 38.45678 | -87.22132 | 23017 ft | 433 kts | 341° |
| 2026-05-06 23:41 | 38.48691 | -87.22369 | 23021 ft | 434 kts | 341° |
| 2026-05-06 23:41 | 38.51754 | -87.22612 | 23017 ft | 435 kts | 341° |
| 2026-05-06 23:41 | 38.54788 | -87.22854 | 23021 ft | 437 kts | 341° |
| 2026-05-06 23:41 | 38.57819 | -87.23096 | 23030 ft | 437 kts | 342° |
| 2026-05-06 23:42 | 38.60861 | -87.23315 | 23029 ft | 440 kts | 343° |
| 2026-05-06 23:42 | 38.63975 | -87.23068 | 23039 ft | 460 kts | 355° |
| 2026-05-06 23:42 | 38.67172 | -87.21982 | 23038 ft | 483 kts | 9° |
| 2026-05-06 23:42 | 38.70202 | -87.20010 | 23028 ft | 500 kts | 20° |
| 2026-05-06 23:43 | 38.73208 | -87.17763 | 23026 ft | 501 kts | 20° |
| 2026-05-06 23:43 | 38.76213 | -87.15523 | 23035 ft | 501 kts | 19° |
| 2026-05-06 23:43 | 38.79245 | -87.13259 | 23025 ft | 499 kts | 20° |
| 2026-05-06 23:43 | 38.82238 | -87.11023 | 23025 ft | 498 kts | 20° |
| 2026-05-06 23:44 | 38.85231 | -87.08788 | 23028 ft | 499 kts | 19° |
| 2026-05-06 23:44 | 38.88234 | -87.06545 | 23022 ft | 500 kts | 19° |
| 2026-05-06 23:44 | 38.91200 | -87.04326 | 23011 ft | 499 kts | 20° |
| 2026-05-06 23:44 | 38.94206 | -87.02075 | 23016 ft | 499 kts | 20° |
| 2026-05-06 23:45 | 38.97204 | -86.99862 | 23008 ft | 498 kts | 18° |
| 2026-05-06 23:45 | 39.00248 | -86.97664 | 23002 ft | 492 kts | 19° |
| 2026-05-06 23:45 | 39.03134 | -86.95561 | 22988 ft | 468 kts | 18° |
| 2026-05-06 23:45 | 39.05891 | -86.93543 | 22833 ft | 444 kts | 18° |
| 2026-05-06 23:46 | 39.08547 | -86.91606 | 22532 ft | 426 kts | 17° |
| 2026-05-06 23:46 | 39.11104 | -86.89738 | 21973 ft | 421 kts | 18° |
| 2026-05-06 23:46 | 39.13616 | -86.87808 | 21372 ft | 416 kts | 19° |
| 2026-05-06 23:46 | 39.16064 | -86.85905 | 20876 ft | 407 kts | 19° |
| 2026-05-06 23:47 | 39.18476 | -86.84032 | 20208 ft | 403 kts | 19° |
| 2026-05-06 23:47 | 39.20848 | -86.82188 | 19610 ft | 398 kts | 20° |
| 2026-05-06 23:47 | 39.23212 | -86.80349 | 19029 ft | 391 kts | 19° |
| 2026-05-06 23:47 | 39.25520 | -86.78542 | 18433 ft | 387 kts | 20° |
| 2026-05-06 23:48 | 39.27719 | -86.76636 | 17914 ft | 383 kts | 25° |
| 2026-05-06 23:48 | 39.29892 | -86.74644 | 17261 ft | 381 kts | 25° |
| 2026-05-06 23:48 | 39.32033 | -86.72680 | 16777 ft | 372 kts | 25° |
| 2026-05-06 23:48 | 39.34141 | -86.70748 | 16114 ft | 370 kts | 26° |
| 2026-05-06 23:49 | 39.36203 | -86.68856 | 15622 ft | 363 kts | 26° |
| 2026-05-06 23:49 | 39.38250 | -86.66975 | 15103 ft | 356 kts | 26° |
| 2026-05-06 23:49 | 39.40268 | -86.65153 | 14556 ft | 348 kts | 22° |
| 2026-05-06 23:49 | 39.42323 | -86.63695 | 14062 ft | 336 kts | 17° |
| 2026-05-06 23:50 | 39.44398 | -86.62312 | 13480 ft | 332 kts | 18° |
| 2026-05-06 23:50 | 39.48443 | -86.59604 | 12377 ft | 323 kts | 19° |
| 2026-05-06 23:50 | 39.50418 | -86.58277 | 11856 ft | 318 kts | 19° |
| 2026-05-06 23:51 | 39.52387 | -86.56956 | 11249 ft | 315 kts | 20° |
| 2026-05-06 23:51 | 39.54298 | -86.55628 | 10757 ft | 309 kts | 24° |
| 2026-05-06 23:51 | 39.56109 | -86.54195 | 10192 ft | 307 kts | 26° |
| 2026-05-06 23:51 | 39.57907 | -86.52741 | 9663 ft | 302 kts | 26° |
| 2026-05-06 23:52 | 39.59686 | -86.51305 | 9100 ft | 298 kts | 27° |
| 2026-05-06 23:52 | 39.61403 | -86.49915 | 8799 ft | 288 kts | 27° |
| 2026-05-06 23:52 | 39.63122 | -86.48528 | 8507 ft | 292 kts | 27° |
| 2026-05-06 23:52 | 39.64849 | -86.47134 | 8229 ft | 291 kts | 27° |
| 2026-05-06 23:53 | 39.66567 | -86.45744 | 7944 ft | 290 kts | 27° |
| 2026-05-06 23:53 | 39.68261 | -86.44373 | 7669 ft | 287 kts | 28° |
| 2026-05-06 23:53 | 39.69949 | -86.43005 | 7395 ft | 285 kts | 28° |
| 2026-05-06 23:53 | 39.71630 | -86.41669 | 7139 ft | 283 kts | 27° |
| 2026-05-06 23:54 | 39.73312 | -86.40346 | 6879 ft | 281 kts | 28° |
| 2026-05-06 23:54 | 39.74989 | -86.39026 | 6623 ft | 279 kts | 28° |
| 2026-05-06 23:54 | 39.76639 | -86.37725 | 6372 ft | 277 kts | 28° |
| 2026-05-06 23:54 | 39.78297 | -86.36414 | 6112 ft | 275 kts | 29° |
| 2026-05-06 23:55 | 39.79774 | -86.34843 | 5855 ft | 277 kts | 41° |
| 2026-05-06 23:55 | 39.81145 | -86.33051 | 5593 ft | 276 kts | 42° |
| 2026-05-06 23:55 | 39.82495 | -86.31295 | 5338 ft | 275 kts | 42° |
| 2026-05-06 23:55 | 39.83851 | -86.29531 | 5083 ft | 273 kts | 41° |
| 2026-05-06 23:56 | 39.85181 | -86.27801 | 4830 ft | 272 kts | 42° |
| 2026-05-06 23:56 | 39.86520 | -86.26057 | 4572 ft | 271 kts | 42° |
| 2026-05-06 23:56 | 39.87861 | -86.24309 | 4313 ft | 269 kts | 42° |
| 2026-05-06 23:56 | 39.89166 | -86.22604 | 4064 ft | 268 kts | 42° |
| 2026-05-06 23:57 | 39.90481 | -86.20885 | 3971 ft | 267 kts | 42° |
| 2026-05-06 23:57 | 39.91775 | -86.19191 | 3949 ft | 257 kts | 42° |
| 2026-05-06 23:57 | 39.92886 | -86.17413 | 3483 ft | 255 kts | 62° |
| 2026-05-06 23:57 | 39.93165 | -86.15196 | 3176 ft | 249 kts | 97° |
| 2026-05-06 23:58 | 39.92452 | -86.13197 | 2981 ft | 240 kts | 131° |
| 2026-05-06 23:58 | 39.91260 | -86.11624 | 2977 ft | 242 kts | 145° |
| 2026-05-06 23:58 | 39.89749 | -86.10889 | 2982 ft | 233 kts | 182° |
| 2026-05-06 23:58 | 39.88149 | -86.11121 | 2988 ft | 230 kts | 195° |
| 2026-05-06 23:59 | 39.86654 | -86.11786 | 2976 ft | 222 kts | 221° |
| 2026-05-06 23:59 | 39.85553 | -86.13127 | 3003 ft | 217 kts | 229° |
| 2026-05-06 23:59 | 39.84450 | -86.14473 | 2994 ft | 210 kts | 228° |
| 2026-05-06 23:59 | 39.83459 | -86.15704 | 3008 ft | 190 kts | 229° |
| 2026-05-07 00:00 | 39.82521 | -86.16900 | 2999 ft | 186 kts | 230° |
| 2026-05-07 00:00 | 39.81604 | -86.18074 | 2991 ft | 184 kts | 229° |
| 2026-05-07 00:00 | 39.80681 | -86.19255 | 2939 ft | 183 kts | 230° |
| 2026-05-07 00:00 | 39.79784 | -86.20403 | 2686 ft | 177 kts | 230° |
| 2026-05-07 00:01 | 39.78936 | -86.21481 | 2482 ft | 164 kts | 231° |
| 2026-05-07 00:01 | 39.78128 | -86.22514 | 2247 ft | 161 kts | 231° |
| 2026-05-07 00:01 | 39.77343 | -86.23521 | 2031 ft | 158 kts | 231° |
| 2026-05-07 00:01 | 39.76585 | -86.24485 | 1847 ft | 142 kts | 231° |
| 2026-05-07 00:02 | 39.75980 | -86.25243 | 1695 ft | 131 kts | 232° |
| 2026-05-07 00:02 | 39.75348 | -86.26047 | 1442 ft | 121 kts | 232° |
| 2026-05-07 00:02 | 39.74742 | -86.26830 | 1341 ft | 122 kts | 232° |
| 2026-05-07 00:02 | 39.74144 | -86.27606 | 1198 ft | 121 kts | 231° |
| 2026-05-07 00:03 | 39.73546 | -86.28374 | 1029 ft | 121 kts | 230° |
| 2026-05-07 00:03 | 39.72865 | -86.29270 | 1190 ft | 157 kts | 231° |
| 2026-05-07 00:03 | 39.72028 | -86.30347 | 1521 ft | 185 kts | 230° |
| 2026-05-07 00:03 | 39.71084 | -86.31561 | 2472 ft | 202 kts | 230° |
| 2026-05-07 00:04 | 39.69992 | -86.33005 | 2933 ft | 250 kts | 230° |
| 2026-05-07 00:04 | 39.68751 | -86.34689 | 2985 ft | 256 kts | 232° |
| 2026-05-07 00:04 | 39.67885 | -86.36610 | 2998 ft | 248 kts | 259° |
| 2026-05-07 00:04 | 39.67957 | -86.38793 | 3001 ft | 243 kts | 292° |
| 2026-05-07 00:05 | 39.68911 | -86.40584 | 2999 ft | 242 kts | 313° |
| 2026-05-07 00:05 | 39.70104 | -86.42129 | 2997 ft | 242 kts | 315° |
| 2026-05-07 00:05 | 39.71315 | -86.43659 | 2997 ft | 242 kts | 315° |
| 2026-05-07 00:05 | 39.72527 | -86.45190 | 2997 ft | 242 kts | 315° |
| 2026-05-07 00:06 | 39.73742 | -86.46716 | 2996 ft | 242 kts | 317° |
| 2026-05-07 00:06 | 39.75186 | -86.47768 | 2998 ft | 245 kts | 345° |
| 2026-05-07 00:06 | 39.76893 | -86.47616 | 3000 ft | 254 kts | 18° |
| 2026-05-07 00:06 | 39.78344 | -86.46261 | 2994 ft | 263 kts | 43° |
| 2026-05-07 00:07 | 39.79580 | -86.44463 | 2991 ft | 265 kts | 45° |
| 2026-05-07 00:07 | 39.80773 | -86.42676 | 2987 ft | 265 kts | 45° |
| 2026-05-07 00:07 | 39.81982 | -86.40874 | 2985 ft | 264 kts | 45° |
| 2026-05-07 00:07 | 39.83196 | -86.39062 | 2981 ft | 264 kts | 45° |
| 2026-05-07 00:08 | 39.84414 | -86.37252 | 2982 ft | 263 kts | 45° |
| 2026-05-07 00:08 | 39.85628 | -86.35450 | 2981 ft | 263 kts | 45° |
| 2026-05-07 00:08 | 39.86823 | -86.33662 | 2978 ft | 263 kts | 45° |
| 2026-05-07 00:08 | 39.88020 | -86.31870 | 2979 ft | 263 kts | 45° |
| 2026-05-07 00:09 | 39.89233 | -86.30067 | 2976 ft | 263 kts | 45° |
| 2026-05-07 00:09 | 39.90434 | -86.28270 | 2982 ft | 262 kts | 45° |
| 2026-05-07 00:09 | 39.91640 | -86.26468 | 2982 ft | 263 kts | 45° |
| 2026-05-07 00:09 | 39.92836 | -86.24684 | 2982 ft | 263 kts | 45° |
| 2026-05-07 00:10 | 39.94046 | -86.22869 | 2976 ft | 264 kts | 46° |
| 2026-05-07 00:10 | 39.94924 | -86.20734 | 2981 ft | 272 kts | 75° |
| 2026-05-07 00:10 | 39.94868 | -86.18309 | 2984 ft | 276 kts | 106° |
| 2026-05-07 00:10 | 39.93944 | -86.16108 | 2979 ft | 277 kts | 124° |
| 2026-05-07 00:11 | 39.92842 | -86.14043 | 2974 ft | 277 kts | 125° |
| 2026-05-07 00:11 | 39.91734 | -86.11985 | 2979 ft | 278 kts | 126° |
| 2026-05-07 00:11 | 39.90358 | -86.10242 | 2983 ft | 276 kts | 152° |
| 2026-05-07 00:11 | 39.88539 | -86.09615 | 2987 ft | 270 kts | 186° |
| 2026-05-07 00:12 | 39.86809 | -86.10389 | 2984 ft | 260 kts | 222° |
| 2026-05-07 00:12 | 39.85759 | -86.12192 | 2985 ft | 243 kts | 247° |
| 2026-05-07 00:12 | 39.84860 | -86.13985 | 2988 ft | 239 kts | 229° |
| 2026-05-07 00:12 | 39.83631 | -86.15459 | 2981 ft | 233 kts | 229° |
| 2026-05-07 00:13 | 39.82532 | -86.16882 | 2998 ft | 215 kts | 229° |
| 2026-05-07 00:13 | 39.81502 | -86.18199 | 2999 ft | 202 kts | 230° |
| 2026-05-07 00:13 | 39.80524 | -86.19451 | 2889 ft | 194 kts | 230° |
| 2026-05-07 00:13 | 39.79577 | -86.20665 | 2632 ft | 187 kts | 230° |
| 2026-05-07 00:14 | 39.78667 | -86.21828 | 2402 ft | 177 kts | 230° |
| 2026-05-07 00:14 | 39.77815 | -86.22915 | 2172 ft | 166 kts | 230° |
| 2026-05-07 00:14 | 39.77035 | -86.23903 | 1953 ft | 144 kts | 231° |
| 2026-05-07 00:14 | 39.76371 | -86.24738 | 1818 ft | 130 kts | 232° |
| 2026-05-07 00:15 | 39.75730 | -86.25566 | 1601 ft | 126 kts | 232° |
| 2026-05-07 00:15 | 39.75115 | -86.26363 | 1442 ft | 124 kts | 231° |
| 2026-05-07 00:15 | 39.74499 | -86.27158 | 1286 ft | 125 kts | 230° |
| 2026-05-07 00:15 | 39.73879 | -86.27950 | 1110 ft | 124 kts | 230° |
| 2026-05-07 00:16 | 39.73270 | -86.28726 | 959 ft | 124 kts | 229° |
| 2026-05-07 00:16 | 39.72652 | -86.29514 | 793 ft | 124 kts | 228° |
| 2026-05-07 00:16 | 39.72123 | -86.30196 | 765 ft | 79 kts | 224° |
| 2026-05-07 00:16 | 39.71834 | -86.30562 | 758 ft | 49 kts | 225° |
| 2026-05-07 00:17 | 39.71595 | -86.30858 | 755 ft | 46 kts | 228° |
| 2026-05-07 00:17 | 39.71452 | -86.31098 | 751 ft | 14 kts | 277° |
| 2026-05-07 00:17 | 39.71518 | -86.31206 | 749 ft | 14 kts | 317° |
| 2026-05-07 00:17 | 39.71590 | -86.31196 | 751 ft | 12 kts | 43° |
| 2026-05-07 00:18 | 39.71658 | -86.31110 | 753 ft | 15 kts | 46° |
| 2026-05-07 00:18 | 39.71747 | -86.30997 | 753 ft | 19 kts | 43° |
| 2026-05-07 00:18 | 39.71850 | -86.30866 | 755 ft | 21 kts | 44° |
| 2026-05-07 00:18 | 39.71959 | -86.30725 | 757 ft | 23 kts | 45° |
| 2026-05-07 00:19 | 39.72079 | -86.30581 | 759 ft | 24 kts | 49° |
| 2026-05-07 00:19 | 39.72201 | -86.30418 | 761 ft | 25 kts | 44° |
| 2026-05-07 00:19 | 39.72330 | -86.30256 | 764 ft | 26 kts | 45° |
| 2026-05-07 00:19 | 39.72462 | -86.30087 | 767 ft | 26 kts | 41° |
| 2026-05-07 00:20 | 39.72599 | -86.29920 | 771 ft | 27 kts | 47° |
| 2026-05-07 00:20 | 39.72730 | -86.29742 | 775 ft | 27 kts | 45° |
| 2026-05-07 00:20 | 39.72868 | -86.29565 | 776 ft | 28 kts | 44° |
| 2026-05-07 00:20 | 39.73010 | -86.29384 | 780 ft | 28 kts | 45° |
| 2026-05-07 00:21 | 39.73145 | -86.29215 | 784 ft | 28 kts | 42° |
| 2026-05-07 00:21 | 39.73286 | -86.29031 | 786 ft | 29 kts | 46° |
| 2026-05-07 00:21 | 39.73435 | -86.28842 | 789 ft | 29 kts | 47° |
| 2026-05-07 00:21 | 39.73509 | -86.28693 | 791 ft | 10 kts | 121° |
| 2026-05-07 00:22 | 39.73459 | -86.28611 | 792 ft | 13 kts | 129° |
| 2026-05-07 00:22 | 39.73358 | -86.28474 | 792 ft | 26 kts | 137° |
| 2026-05-07 00:22 | 39.73221 | -86.28301 | 795 ft | 28 kts | 135° |
| 2026-05-07 00:22 | 39.73077 | -86.28115 | 795 ft | 30 kts | 134° |
| 2026-05-07 00:23 | 39.72923 | -86.27914 | 795 ft | 32 kts | 134° |
| 2026-05-07 00:23 | 39.72762 | -86.27701 | 794 ft | 31 kts | 132° |
| 2026-05-07 00:23 | 39.72777 | -86.27580 | 793 ft | 11 kts | 80° |
| 2026-05-07 00:23 | 39.72729 | -86.27492 | 792 ft | 0 kts | 135° |